ADDS METAR Data INFO
IDs: Format: Raw Decoded Include TAF

Data at: 0321 UTC 16 Dec 2017

KHOT 160253Z AUTO 30004KT 10SM CLR 05/M01 A3020 RMK AO2 SLP229 T00501006 51009
KHOT 160153Z AUTO 00000KT 10SM CLR 04/M01 A3020 RMK AO2 SLP228 T00441011
KHOT 160053Z AUTO 00000KT 10SM CLR 05/M02 A3018 RMK AO2 SLP223 T00501017
KHOT 152353Z AUTO 00000KT 10SM CLR 08/M01 A3017 RMK AO2 SLP220 T00831011 10128 20083 53002
KHOT 152253Z AUTO 26005KT 10SM CLR 11/M01 A3017 RMK AO2 SLP218 T01061011
KHOT 152153Z AUTO 23007KT 10SM CLR 12/M01 A3016 RMK AO2 SLP213 T01221011
KHOT 152053Z AUTO 25008KT 10SM CLR 12/M02 A3017 RMK AO2 SLP216 T01221017 56022
KHOT 151953Z AUTO VRB04KT 10SM CLR 12/M01 A3018 RMK AO2 SLP219 T01171011
KHOT 151853Z AUTO VRB03KT 10SM CLR 11/M02 A3020 RMK AO2 SLP227 T01111017
KHOT 151753Z AUTO 32005KT 10SM CLR 10/M02 A3023 RMK AO2 SLP238 T01001017 10100 21022 58007
KHOT 151653Z AUTO VRB04KT 10SM CLR 07/M01 A3025 RMK AO2 SLP244 T00721011
KHOT 151553Z AUTO 28003KT 10SM CLR 03/M01 A3026 RMK AO2 SLP250 T00331006
KHOT 151453Z AUTO 32003KT 10SM CLR 01/M02 A3025 RMK AO2 SLP246 T00111017 53012
KHOT 151353Z AUTO 00000KT 10SM SCT050 M01/M03 A3024 RMK AO2 SLP240 T10111028
KHOT 151253Z AUTO 31003KT 10SM CLR M02/M04 A3023 RMK AO2 SLP237 T10221039
KHOT 151153Z AUTO 00000KT 10SM CLR M02/M03 A3022 RMK AO2 SLP234 T10171028 10017 21017 51013
KHOT 151053Z AUTO 00000KT 10SM CLR M01/M03 A3020 RMK AO2 SLP226 T10111028
KHOT 150953Z AUTO 31003KT 10SM CLR M01/M02 A3020 RMK AO2 SLP227 T10061017
KHOT 150853Z AUTO 00000KT 10SM CLR M01/M03 A3018 RMK AO2 SLP219 T10061033 55002
KHOT 150753Z AUTO 00000KT 10SM CLR 00/M03 A3017 RMK AO2 SLP217 T00001033
KHOT 150653Z AUTO 00000KT 10SM CLR 01/M03 A3018 RMK AO2 SLP219 T00111033
KHOT 150553Z AUTO 00000KT 10SM CLR 02/M03 A3019 RMK AO2 SLP222 T00221033 10100 20022 401501011 51015
KHOT 150453Z AUTO 01003KT 10SM CLR 05/M03 A3018 RMK AO2 SLP220 T00501033
KHOT 150353Z AUTO 02003KT 10SM CLR 06/M03 A3017 RMK AO2 SLP217 T00561028
KHOT 150253Z AUTO 36004KT 10SM CLR 07/M02 A3014 RMK AO2 SLP207 T00671017 51025
KHOT 150153Z AUTO 36006KT 10SM CLR 08/M02 A3012 RMK AO2 SLP200 T00831017
KHOT 150053Z AUTO 01004KT 10SM CLR 09/M01 A3010 RMK AO2 SLP193 T00941011
KHOT 142353Z AUTO 02005KT 10SM CLR 10/M01 A3006 RMK AO2 SLP181 T01001006 10150 20100 53025
KHOT 142253Z AUTO 35006KT 10SM CLR 12/M01 A3003 RMK AO2 SLP170 T01221011
KHOT 142153Z AUTO 35006KT 10SM CLR 14/M01 A3001 RMK AO2 SLP161 T01391011
KHOT 142053Z AUTO VRB05KT 10SM CLR 15/M01 A2999 RMK AO2 SLP155 T01501011 56016
KHOT 141953Z AUTO 29005KT 10SM CLR 14/M01 A3000 RMK AO2 SLP157 T01391011
KHOT 141853Z AUTO 33007KT 10SM CLR 14/M01 A3002 RMK AO2 SLP164 T01391011
KHOT 141753Z AUTO 27004KT 10SM CLR 13/M01 A3004 RMK AO2 SLP171 T01331011 10139 21006 58001
KHOT 141653Z AUTO 02004KT 10SM CLR 13/M01 A3005 RMK AO2 SLP177 T01281011
KHOT 141553Z AUTO 00000KT 10SM CLR 11/01 A3006 RMK AO2 SLP179 T01060011